createdAt,value
2023-04-17T00:03:48.944Z,22.3
2023-04-17T00:09:42.226Z,22.3
2023-04-17T00:15:47.921Z,22.3
2023-04-17T00:21:24.983Z,22.3
2023-04-17T00:27:01.077Z,22.3
2023-04-17T00:32:38.038Z,22.3
2023-04-17T00:38:29.128Z,22.3
2023-04-17T00:44:21.005Z,22.3
2023-04-17T00:50:12.665Z,22.3
2023-04-17T00:56:04.168Z,22.3
2023-04-17T01:01:57.132Z,22.2
2023-04-17T01:07:51.291Z,22.2
2023-04-17T01:13:11.669Z,22.3
2023-04-17T01:19:03.377Z,22.2
2023-04-17T01:24:54.987Z,22.2
2023-04-17T01:30:46.021Z,22.2
2023-04-17T01:36:38.124Z,22.3
2023-04-17T01:42:13.952Z,22.2
2023-04-17T01:48:05.941Z,22.3
2023-04-17T01:53:42.420Z,22.2
2023-04-17T01:59:18.554Z,22.2
2023-04-17T02:05:11.528Z,22.2
2023-04-17T02:10:48.626Z,22.2
2023-04-17T02:16:39.877Z,22.2
2023-04-17T02:22:16.255Z,22.3
2023-04-17T02:27:52.977Z,22.4
2023-04-17T02:33:44.819Z,22.6
2023-04-17T02:39:35.825Z,22.7
2023-04-17T02:45:27.588Z,22.6
2023-04-17T02:51:04.179Z,22.6
2023-04-17T02:56:55.597Z,22.6
2023-04-17T03:02:48.209Z,22.5
2023-04-17T03:08:41.158Z,22.5
2023-04-17T03:14:32.384Z,22.5
2023-04-17T03:20:27.148Z,22.5
2023-04-17T03:26:18.695Z,22.4
2023-04-17T03:31:57.127Z,22.4
2023-04-17T03:37:33.682Z,22.4
2023-04-17T03:43:25.840Z,22.3
2023-04-17T03:49:01.918Z,22.4
2023-04-17T03:54:38.703Z,22.3
2023-04-17T04:00:30.068Z,22.3
2023-04-17T04:06:07.547Z,22.3
2023-04-17T04:11:59.149Z,22.3
2023-04-17T04:17:36.013Z,22.3
2023-04-17T04:23:12.356Z,22.3
2023-04-17T04:29:04.935Z,22.3
2023-04-17T04:34:42.712Z,22.2
2023-04-17T04:40:06.449Z,22.3
2023-04-17T04:45:42.736Z,22.3
2023-04-17T04:51:03.821Z,22.3
2023-04-17T04:56:23.361Z,22.3
2023-04-17T05:02:00.128Z,22.3
2023-04-17T05:07:39.064Z,22.3
2023-04-17T05:13:15.163Z,22.3
2023-04-17T05:19:09.161Z,22.3
2023-04-17T05:25:00.587Z,22.2
2023-04-17T05:30:36.390Z,22.2
2023-04-17T05:36:13.318Z,22.2
2023-04-17T05:41:52.831Z,22.1
2023-04-17T05:47:28.484Z,22.1
2023-04-17T05:53:05.038Z,22
2023-04-17T05:58:55.913Z,21.9
2023-04-17T06:04:35.553Z,21.9
2023-04-17T06:10:15.218Z,21.9
2023-04-17T06:15:51.225Z,21.8
2023-04-17T06:21:29.138Z,21.8
2023-04-17T06:27:05.461Z,21.8
2023-04-17T06:32:41.103Z,21.7
2023-04-17T06:38:25.486Z,21.7
2023-04-17T06:43:46.708Z,21.7
2023-04-17T06:49:23.556Z,21.7
2023-04-17T06:54:58.872Z,21.7
2023-04-17T07:00:35.784Z,21.6
2023-04-17T07:06:17.120Z,21.6
2023-04-17T07:11:37.128Z,21.6
2023-04-17T07:16:59.115Z,21.6
2023-04-17T07:22:36.781Z,21.6
2023-04-17T07:28:12.892Z,21.6
2023-04-17T07:33:49.939Z,31.3
2023-04-17T07:39:30.039Z,27.9
2023-04-17T07:45:05.818Z,27.4
2023-04-17T07:50:32.967Z,26.8
2023-04-17T07:56:11.224Z,26.3
2023-04-17T08:01:33.288Z,25.8
2023-04-17T08:07:12.794Z,25.4
2023-04-17T08:13:02.562Z,31.2
2023-04-17T08:18:23.688Z,31.1
2023-04-17T08:24:00.575Z,31.2
2023-04-17T08:29:40.500Z,31.5
2023-04-17T08:35:49.306Z,31.6
2023-04-17T08:41:28.635Z,31.9
2023-04-17T08:47:22.138Z,31.8
2023-04-17T08:53:13.792Z,31.5
2023-04-17T08:58:35.124Z,31.4
2023-04-17T09:04:14.418Z,31.7
2023-04-17T09:09:50.815Z,32
2023-04-17T09:15:43.683Z,32.3
2023-04-17T09:21:05.660Z,32.2
2023-04-17T09:26:26.004Z,32.5
2023-04-17T09:31:47.923Z,32.7
2023-04-17T09:37:27.460Z,32.9
2023-04-17T09:43:19.106Z,32.9
2023-04-17T09:49:11.243Z,32.6
2023-04-17T09:55:04.601Z,32
2023-04-17T10:00:40.919Z,31.4
2023-04-17T10:06:35.182Z,31.1
2023-04-17T10:12:27.192Z,31.1
2023-04-17T10:18:19.477Z,31.3
2023-04-17T10:24:13.971Z,31.6
2023-04-17T10:30:06.340Z,32
2023-04-17T10:36:02.660Z,32.6
2023-04-17T10:41:39.610Z,33.3
2023-04-17T10:47:32.728Z,33.4
2023-04-17T10:53:25.755Z,33.8
2023-04-17T10:59:21.359Z,34.1
2023-04-17T11:05:15.784Z,34.7
2023-04-17T11:10:53.155Z,34.8
2023-04-17T11:16:46.178Z,34.6
2023-04-17T11:22:23.499Z,34.6
2023-04-17T11:28:00.112Z,35
2023-04-17T11:33:21.624Z,35.9
2023-04-17T11:38:58.613Z,35.4
2023-04-17T11:44:20.130Z,34.5
2023-04-17T11:50:12.479Z,34.2
2023-04-17T11:56:03.944Z,34.3
2023-04-17T12:01:56.288Z,34.4
2023-04-17T12:07:36.277Z,34.4
2023-04-17T12:13:28.365Z,34.8
2023-04-17T12:19:04.586Z,35.4
2023-04-17T12:24:56.441Z,36.4
2023-04-17T12:30:33.213Z,37.1
2023-04-17T12:36:09.517Z,37.4
2023-04-17T12:42:03.505Z,37.5
2023-04-17T12:47:53.368Z,37.6
2023-04-17T12:53:44.816Z,37.4
2023-04-17T12:59:36.375Z,37.3
2023-04-17T13:05:31.376Z,37.3
2023-04-17T13:11:06.949Z,37.5
2023-04-17T13:16:43.196Z,37.4
2023-04-17T13:22:36.880Z,37.4
2023-04-17T13:28:27.943Z,37.3
2023-04-17T13:34:22.317Z,37.1
2023-04-17T13:40:17.479Z,35.6
2023-04-17T13:45:55.530Z,35
2023-04-17T13:51:48.160Z,35
2023-04-17T13:57:40.476Z,34.9
2023-04-17T14:03:18.019Z,35.1
2023-04-17T14:09:00.765Z,34.9
2023-04-17T14:14:52.426Z,34.7
2023-04-17T14:20:52.069Z,34.6
2023-04-17T14:26:12.989Z,34.5
2023-04-17T14:31:49.218Z,34.4
2023-04-17T14:37:30.760Z,34.2
2023-04-17T14:43:23.918Z,34.1
2023-04-17T14:49:28.244Z,33.9
2023-04-17T14:55:18.392Z,33.8
2023-04-17T15:01:09.947Z,33.5
2023-04-17T15:07:03.336Z,33.3
2023-04-17T15:12:55.518Z,33
2023-04-17T15:18:31.910Z,32.8
2023-04-17T15:24:23.735Z,32.6
2023-04-17T15:30:14.882Z,32.3
2023-04-17T15:36:06.211Z,32
2023-04-17T15:42:00.007Z,31.6
2023-04-17T15:47:53.807Z,31.4
2023-04-17T15:54:10.271Z,31
2023-04-17T16:00:01.464Z,30.7
2023-04-17T16:05:55.013Z,30.4
2023-04-17T16:11:31.313Z,30.1
2023-04-17T16:17:22.977Z,29.9
2023-04-17T16:23:14.409Z,29.6
2023-04-17T16:29:06.478Z,29.3
2023-04-17T16:34:43.452Z,28.9
2023-04-17T16:40:24.218Z,28.6
2023-04-17T16:46:08.253Z,28.3
2023-04-17T16:52:34.379Z,27.6
2023-04-17T16:58:25.295Z,26.9
2023-04-17T17:04:18.195Z,26.2
2023-04-17T17:09:39.018Z,25.6
2023-04-17T17:14:59.844Z,25.3
2023-04-17T17:20:52.194Z,24.9
2023-04-17T17:26:26.984Z,24.4
2023-04-17T17:32:18.971Z,24.2
2023-04-17T17:38:06.740Z,24
2023-04-17T17:43:43.317Z,23.7
2023-04-17T17:49:37.104Z,23.4
2023-04-17T17:55:31.167Z,23.2
2023-04-17T18:01:20.845Z,23
2023-04-17T18:06:59.995Z,22.8
2023-04-17T18:12:20.736Z,22.6
2023-04-17T18:17:57.697Z,22.4
2023-04-17T18:23:33.492Z,22.3
2023-04-17T18:29:09.457Z,22.1
2023-04-17T18:34:46.128Z,21.9
2023-04-17T18:40:40.471Z,21.7
2023-04-17T18:46:16.462Z,21.5
2023-04-17T18:51:53.216Z,21.4
2023-04-17T18:57:35.448Z,21.3
2023-04-17T19:08:20.236Z,21.1
2023-04-17T19:14:13.105Z,21
2023-04-17T19:20:06.081Z,20.9
2023-04-17T19:25:58.769Z,20.9
2023-04-17T19:31:36.122Z,20.9
2023-04-17T19:37:29.519Z,21.3
2023-04-17T19:43:03.496Z,21.8
2023-04-17T19:48:58.616Z,22.6
2023-04-17T19:54:21.518Z,23.3
2023-04-17T19:59:59.481Z,23.9
2023-04-17T20:05:40.411Z,24.7
2023-04-17T20:11:17.291Z,25.3
2023-04-17T20:16:53.845Z,25.9
2023-04-17T20:22:48.209Z,26.4
2023-04-17T20:28:39.784Z,26.7
2023-04-17T20:34:32.765Z,26.9
2023-04-17T20:39:52.787Z,27.1
2023-04-17T20:45:45.148Z,27.3
2023-04-17T20:51:50.172Z,27.4
2023-04-17T20:57:41.630Z,27.4
2023-04-17T21:03:32.153Z,27.5
2023-04-17T21:09:09.019Z,27.6
2023-04-17T21:14:29.966Z,27.6
2023-04-17T21:20:06.332Z,27.6
2023-04-17T21:25:57.343Z,27.6
2023-04-17T21:31:33.072Z,27.6
2023-04-17T21:37:10.043Z,27.6
2023-04-17T21:42:48.179Z,27.6
2023-04-17T21:48:39.577Z,27.5
2023-04-17T21:54:31.447Z,27.5
2023-04-17T22:00:22.108Z,27.5
2023-04-17T22:06:14.396Z,27.5
2023-04-17T22:11:46.341Z,27.5
2023-04-17T22:17:22.830Z,27.5
2023-04-17T22:23:14.334Z,27.5
2023-04-17T22:28:50.713Z,27.4
2023-04-17T22:34:26.680Z,27.4
2023-04-17T22:40:17.629Z,27.4
2023-04-17T22:45:54.348Z,27.4
2023-04-17T22:51:15.757Z,27.4
2023-04-17T22:57:02.542Z,27.4
2023-04-17T23:02:54.456Z,27.4
2023-04-17T23:08:31.198Z,27.4
2023-04-17T23:14:22.687Z,27.4
2023-04-17T23:19:44.225Z,27.3
2023-04-17T23:25:10.286Z,27.3
2023-04-17T23:30:46.105Z,27.3
2023-04-17T23:36:22.972Z,27.3
2023-04-17T23:41:59.316Z,27.3
2023-04-17T23:47:36.146Z,27.3
2023-04-17T23:53:28.216Z,27.3
2023-04-17T23:59:20.229Z,27.2
